Weather at Tungubakkar Airport

Public forecast

Using degrees Celsius for public forecast. Weather courtesy of forecast.io.

Closest aviation weather report (METAR) to Tungubakkar Airport

Closest report is Reykjavik Airport, 6.8 nm (12.6 km) WSW. Retrieved 2020/10/21 11:00 UTC (45 minutes ago):

BIRK 211100Z 09010KT 9999 VCSH FEW025 OVC064 03/M00 Q1010

Closest aviation forecast (TAF) to Tungubakkar Airport

Closest forecast is Reykjavik Airport, 6.8 nm (12.6 km) WSW. Retrieved 2020/10/21 09:40 UTC (2 hours ago):

TAF BIRK 210738Z 2109/2209 16013KT 9999 -RA FEW018 BKN025 TX05/2114Z TN03/2109Z BECMG 2119/2121 13015G25KT TEMPO 2200/2209 13020G35KT